Etusivu
METAR-TAF:

METAR-TAF

Lentoasemat :

Visby, Gotland, Ruotsi

Visbyn lentoasema

Leveyspiiri: 57-40N, Pituuspiiri: 018-21E, korkeus merenpinnasta: 51 m

Tämänhetkinen sää

Tämä raportti tehtiin 43 minuuttia sitten, kello 01.20 UTC
Tuuli 5 kn etelästä/lounaasta
Lämpötila 4°C
Kosteus 93%
Ilmanpaine 1007 hPa
Näkyvyys 10 km tai enemmän

METAR: ESSV 250120Z AUTO 20005KT 9999 OVC024/// 04/03 Q1007

Aika: 03:03 (02:03 UTC)

Sääennuste

Tämä raportti tehtiin 5 tuntia ja 33 minuuttia sitten, kello 20.30 UTC
Ennuste voimassa 24. päivästä klo 21 UTC - 24. päivään klo 23 UTC
Tuuli 5 kn etelästä
Näkyvyys 10 km tai enemmän
Hajonneita pilviä 2500 ft:n korkeudessa
Todennäköisyys 40%
24. päivästä klo 21 UTC - 24. päivään klo 23 UTC
Hajonneita pilviä 1000 ft:n korkeudessa

TAF: ESSV 242030Z 2421/2423 19005KT 9999 BKN025 PROB40 2421/2423 BKN010

Säähavainnot ja -ennusteet yli 4000 lentoasemalta (METAR- ja TAF-raportit).

Käytössä olevat sääasemat on merkitty karttaan keltaisilla ja punaisilla pisteillä.

Aseta hiiri pisteen päälle nähdäksesi sääaseman nimen.

Klikkaa sitten nähdäksesi säähavainnot ja -ennusteet.

Kartan vaihtaminen: klikkaa mustalla rastilla varustettuja vihreitä pisteitä, niin voit zoomata sisään; viivalla varustettua vihreää pistettä, niin voit zoomata ulos tai vihreitä nuolia, niin pääset viereisille kartoille.


METAR-TAF: